sensor_id;sensor_type;location;lat;lon;timestamp;temperature;humidity
48860;DHT22;34679;51.436;-2.518;2024-02-04T00:00:30;11.00;99.90
48860;DHT22;34679;51.436;-2.518;2024-02-04T00:02:55;11.00;99.90
48860;DHT22;34679;51.436;-2.518;2024-02-04T00:05:21;11.10;99.90
48860;DHT22;34679;51.436;-2.518;2024-02-04T00:07:47;11.00;99.90
48860;DHT22;34679;51.436;-2.518;2024-02-04T00:10:13;11.10;99.90
48860;DHT22;34679;51.436;-2.518;2024-02-04T00:12:41;11.10;99.90
48860;DHT22;34679;51.436;-2.518;2024-02-04T00:15:07;11.00;99.90
48860;DHT22;34679;51.436;-2.518;2024-02-04T00:17:33;11.10;99.90
48860;DHT22;34679;51.436;-2.518;2024-02-04T00:20:00;11.10;99.90
48860;DHT22;34679;51.436;-2.518;2024-02-04T00:22:27;11.10;99.90
48860;DHT22;34679;51.436;-2.518;2024-02-04T00:24:52;11.10;99.90
48860;DHT22;34679;51.436;-2.518;2024-02-04T00:27:18;11.10;99.90
48860;DHT22;34679;51.436;-2.518;2024-02-04T00:29:44;11.00;99.90
48860;DHT22;34679;51.436;-2.518;2024-02-04T00:32:10;11.00;99.90
48860;DHT22;34679;51.436;-2.518;2024-02-04T00:34:35;11.00;99.90
48860;DHT22;34679;51.436;-2.518;2024-02-04T00:37:01;11.00;99.90
48860;DHT22;34679;51.436;-2.518;2024-02-04T00:39:28;11.00;99.90
48860;DHT22;34679;51.436;-2.518;2024-02-04T00:41:53;11.00;99.90
48860;DHT22;34679;51.436;-2.518;2024-02-04T00:44:19;11.00;99.90
48860;DHT22;34679;51.436;-2.518;2024-02-04T00:46:45;11.00;99.90
48860;DHT22;34679;51.436;-2.518;2024-02-04T00:49:10;11.00;99.90
48860;DHT22;34679;51.436;-2.518;2024-02-04T00:51:36;11.00;99.90
48860;DHT22;34679;51.436;-2.518;2024-02-04T00:54:02;11.00;99.90
48860;DHT22;34679;51.436;-2.518;2024-02-04T00:56:27;11.00;99.90
48860;DHT22;34679;51.436;-2.518;2024-02-04T00:58:53;10.90;99.90
48860;DHT22;34679;51.436;-2.518;2024-02-04T01:01:19;10.90;99.90
48860;DHT22;34679;51.436;-2.518;2024-02-04T01:03:45;10.90;99.90
48860;DHT22;34679;51.436;-2.518;2024-02-04T01:06:10;10.90;99.90
48860;DHT22;34679;51.436;-2.518;2024-02-04T01:08:36;10.90;99.90
48860;DHT22;34679;51.436;-2.518;2024-02-04T01:11:06;11.00;99.90
48860;DHT22;34679;51.436;-2.518;2024-02-04T01:13:32;11.00;99.90
48860;DHT22;34679;51.436;-2.518;2024-02-04T01:15:58;11.00;99.90
48860;DHT22;34679;51.436;-2.518;2024-02-04T01:18:24;11.00;99.90
48860;DHT22;34679;51.436;-2.518;2024-02-04T01:20:53;11.00;99.90
48860;DHT22;34679;51.436;-2.518;2024-02-04T01:23:18;11.00;99.90
48860;DHT22;34679;51.436;-2.518;2024-02-04T01:25:45;11.00;99.90
48860;DHT22;34679;51.436;-2.518;2024-02-04T01:28:10;11.00;99.90
48860;DHT22;34679;51.436;-2.518;2024-02-04T01:30:36;11.00;99.90
48860;DHT22;34679;51.436;-2.518;2024-02-04T01:33:03;11.00;99.90
48860;DHT22;34679;51.436;-2.518;2024-02-04T01:35:29;11.10;99.90
48860;DHT22;34679;51.436;-2.518;2024-02-04T01:37:55;11.10;99.90
48860;DHT22;34679;51.436;-2.518;2024-02-04T01:40:20;11.10;99.90
48860;DHT22;34679;51.436;-2.518;2024-02-04T01:42:46;11.10;99.90
48860;DHT22;34679;51.436;-2.518;2024-02-04T01:45:12;11.10;99.90
48860;DHT22;34679;51.436;-2.518;2024-02-04T01:47:38;11.10;99.90
48860;DHT22;34679;51.436;-2.518;2024-02-04T01:50:04;11.10;99.90
48860;DHT22;34679;51.436;-2.518;2024-02-04T01:52:36;11.10;99.90
48860;DHT22;34679;51.436;-2.518;2024-02-04T01:55:05;11.10;99.90
48860;DHT22;34679;51.436;-2.518;2024-02-04T01:57:32;11.10;99.90
48860;DHT22;34679;51.436;-2.518;2024-02-04T01:59:57;11.10;99.90
48860;DHT22;34679;51.436;-2.518;2024-02-04T02:02:25;11.10;99.90
48860;DHT22;34679;51.436;-2.518;2024-02-04T02:04:51;11.10;99.90
48860;DHT22;34679;51.436;-2.518;2024-02-04T02:07:18;11.20;99.90
48860;DHT22;34679;51.436;-2.518;2024-02-04T02:09:46;11.20;99.90
48860;DHT22;34679;51.436;-2.518;2024-02-04T02:12:22;11.20;99.90
48860;DHT22;34679;51.436;-2.518;2024-02-04T02:14:57;11.20;99.90
48860;DHT22;34679;51.436;-2.518;2024-02-04T02:17:31;11.20;99.90
48860;DHT22;34679;51.436;-2.518;2024-02-04T02:22:57;11.20;99.90
48860;DHT22;34679;51.436;-2.518;2024-02-04T02:25:31;11.10;99.90
48860;DHT22;34679;51.436;-2.518;2024-02-04T02:27:59;11.20;99.90
48860;DHT22;34679;51.436;-2.518;2024-02-04T02:30:25;11.20;99.90
48860;DHT22;34679;51.436;-2.518;2024-02-04T02:32:50;11.10;99.90
48860;DHT22;34679;51.436;-2.518;2024-02-04T02:35:16;11.20;99.90
48860;DHT22;34679;51.436;-2.518;2024-02-04T02:40:54;11.20;99.90
48860;DHT22;34679;51.436;-2.518;2024-02-04T02:43:23;11.20;99.90
48860;DHT22;34679;51.436;-2.518;2024-02-04T02:45:50;11.20;99.90
48860;DHT22;34679;51.436;-2.518;2024-02-04T02:48:16;11.20;99.90
48860;DHT22;34679;51.436;-2.518;2024-02-04T02:50:42;11.30;99.90
48860;DHT22;34679;51.436;-2.518;2024-02-04T02:53:08;11.30;99.90
48860;DHT22;34679;51.436;-2.518;2024-02-04T02:55:33;11.20;99.90
48860;DHT22;34679;51.436;-2.518;2024-02-04T02:57:59;11.20;99.90
48860;DHT22;34679;51.436;-2.518;2024-02-04T03:00:25;11.10;99.90
48860;DHT22;34679;51.436;-2.518;2024-02-04T03:02:51;11.20;99.90
48860;DHT22;34679;51.436;-2.518;2024-02-04T03:05:17;11.20;99.90
48860;DHT22;34679;51.436;-2.518;2024-02-04T03:07:43;11.10;99.90
48860;DHT22;34679;51.436;-2.518;2024-02-04T03:10:09;11.20;99.90
48860;DHT22;34679;51.436;-2.518;2024-02-04T03:12:35;11.10;99.90
48860;DHT22;34679;51.436;-2.518;2024-02-04T03:15:01;11.10;99.90
48860;DHT22;34679;51.436;-2.518;2024-02-04T03:17:26;11.20;99.90
48860;DHT22;34679;51.436;-2.518;2024-02-04T03:19:52;11.10;99.90
48860;DHT22;34679;51.436;-2.518;2024-02-04T03:22:20;11.20;99.90
48860;DHT22;34679;51.436;-2.518;2024-02-04T03:24:50;11.10;99.90
48860;DHT22;34679;51.436;-2.518;2024-02-04T03:27:19;11.20;99.90
48860;DHT22;34679;51.436;-2.518;2024-02-04T03:29:45;11.10;99.90
48860;DHT22;34679;51.436;-2.518;2024-02-04T03:32:11;11.10;99.90
48860;DHT22;34679;51.436;-2.518;2024-02-04T03:34:37;11.20;99.90
48860;DHT22;34679;51.436;-2.518;2024-02-04T03:37:03;11.20;99.90
48860;DHT22;34679;51.436;-2.518;2024-02-04T03:39:28;11.20;99.90
48860;DHT22;34679;51.436;-2.518;2024-02-04T03:41:54;11.20;99.90
48860;DHT22;34679;51.436;-2.518;2024-02-04T03:44:20;11.20;99.90
48860;DHT22;34679;51.436;-2.518;2024-02-04T03:46:49;11.20;99.90
48860;DHT22;34679;51.436;-2.518;2024-02-04T03:49:16;11.20;99.90
48860;DHT22;34679;51.436;-2.518;2024-02-04T03:51:42;11.30;99.90
48860;DHT22;34679;51.436;-2.518;2024-02-04T03:54:07;11.30;99.90
48860;DHT22;34679;51.436;-2.518;2024-02-04T03:56:33;11.30;99.90
48860;DHT22;34679;51.436;-2.518;2024-02-04T03:58:59;11.30;99.90
48860;DHT22;34679;51.436;-2.518;2024-02-04T04:01:25;11.30;99.90
48860;DHT22;34679;51.436;-2.518;2024-02-04T04:03:50;11.30;99.90
48860;DHT22;34679;51.436;-2.518;2024-02-04T04:06:16;11.30;99.90
48860;DHT22;34679;51.436;-2.518;2024-02-04T04:08:42;11.40;99.90
48860;DHT22;34679;51.436;-2.518;2024-02-04T04:11:09;11.40;99.90
48860;DHT22;34679;51.436;-2.518;2024-02-04T04:13:35;11.40;99.90
48860;DHT22;34679;51.436;-2.518;2024-02-04T04:16:02;11.40;99.90
48860;DHT22;34679;51.436;-2.518;2024-02-04T04:18:27;11.40;99.90
48860;DHT22;34679;51.436;-2.518;2024-02-04T04:20:53;11.40;99.90
48860;DHT22;34679;51.436;-2.518;2024-02-04T04:23:19;11.40;99.90
48860;DHT22;34679;51.436;-2.518;2024-02-04T04:25:44;11.40;99.90
48860;DHT22;34679;51.436;-2.518;2024-02-04T04:28:10;11.40;99.90
48860;DHT22;34679;51.436;-2.518;2024-02-04T04:30:36;11.40;99.90
48860;DHT22;34679;51.436;-2.518;2024-02-04T04:33:02;11.40;99.90
48860;DHT22;34679;51.436;-2.518;2024-02-04T04:35:27;11.40;99.90
48860;DHT22;34679;51.436;-2.518;2024-02-04T04:37:53;11.40;99.90
48860;DHT22;34679;51.436;-2.518;2024-02-04T04:40:19;11.40;99.90
48860;DHT22;34679;51.436;-2.518;2024-02-04T04:42:44;11.50;99.90
48860;DHT22;34679;51.436;-2.518;2024-02-04T04:45:10;11.50;99.90
48860;DHT22;34679;51.436;-2.518;2024-02-04T04:47:37;11.50;99.90
48860;DHT22;34679;51.436;-2.518;2024-02-04T04:50:04;11.60;99.90
48860;DHT22;34679;51.436;-2.518;2024-02-04T04:52:31;11.50;99.90
48860;DHT22;34679;51.436;-2.518;2024-02-04T04:54:57;11.50;99.90
48860;DHT22;34679;51.436;-2.518;2024-02-04T04:57:23;11.60;99.90
48860;DHT22;34679;51.436;-2.518;2024-02-04T04:59:48;11.60;99.90
48860;DHT22;34679;51.436;-2.518;2024-02-04T05:02:14;11.60;99.90
48860;DHT22;34679;51.436;-2.518;2024-02-04T05:04:44;11.60;99.90
48860;DHT22;34679;51.436;-2.518;2024-02-04T05:07:10;11.60;99.90
48860;DHT22;34679;51.436;-2.518;2024-02-04T05:09:36;11.60;99.90
48860;DHT22;34679;51.436;-2.518;2024-02-04T05:12:07;11.60;99.90
48860;DHT22;34679;51.436;-2.518;2024-02-04T05:14:33;11.60;99.90
48860;DHT22;34679;51.436;-2.518;2024-02-04T05:17:00;11.70;99.90
48860;DHT22;34679;51.436;-2.518;2024-02-04T05:19:25;11.60;99.90
48860;DHT22;34679;51.436;-2.518;2024-02-04T05:21:51;11.60;99.90
48860;DHT22;34679;51.436;-2.518;2024-02-04T05:24:17;11.60;99.90
48860;DHT22;34679;51.436;-2.518;2024-02-04T05:26:43;11.60;99.90
48860;DHT22;34679;51.436;-2.518;2024-02-04T05:29:08;11.60;99.90
48860;DHT22;34679;51.436;-2.518;2024-02-04T05:31:40;11.60;99.90
48860;DHT22;34679;51.436;-2.518;2024-02-04T05:34:07;11.50;99.90
48860;DHT22;34679;51.436;-2.518;2024-02-04T05:36:32;11.50;99.90
48860;DHT22;34679;51.436;-2.518;2024-02-04T05:39:09;11.50;99.90
48860;DHT22;34679;51.436;-2.518;2024-02-04T05:41:36;11.40;99.90
48860;DHT22;34679;51.436;-2.518;2024-02-04T05:44:01;11.40;99.90
48860;DHT22;34679;51.436;-2.518;2024-02-04T05:46:27;11.40;99.90
48860;DHT22;34679;51.436;-2.518;2024-02-04T05:48:53;11.40;99.90
48860;DHT22;34679;51.436;-2.518;2024-02-04T05:51:19;11.40;99.90
48860;DHT22;34679;51.436;-2.518;2024-02-04T05:53:44;11.40;99.90
48860;DHT22;34679;51.436;-2.518;2024-02-04T05:56:10;11.40;99.90
48860;DHT22;34679;51.436;-2.518;2024-02-04T05:58:36;11.40;99.90
48860;DHT22;34679;51.436;-2.518;2024-02-04T06:01:03;11.40;99.90
48860;DHT22;34679;51.436;-2.518;2024-02-04T06:03:29;11.40;99.90
48860;DHT22;34679;51.436;-2.518;2024-02-04T06:05:55;11.40;99.90
48860;DHT22;34679;51.436;-2.518;2024-02-04T06:08:20;11.40;99.90
48860;DHT22;34679;51.436;-2.518;2024-02-04T06:10:46;11.50;99.90
48860;DHT22;34679;51.436;-2.518;2024-02-04T06:13:12;11.50;99.90
48860;DHT22;34679;51.436;-2.518;2024-02-04T06:15:38;11.50;99.90
48860;DHT22;34679;51.436;-2.518;2024-02-04T06:18:04;11.50;99.90
48860;DHT22;34679;51.436;-2.518;2024-02-04T06:20:29;11.50;99.90
48860;DHT22;34679;51.436;-2.518;2024-02-04T06:22:55;11.50;99.90
48860;DHT22;34679;51.436;-2.518;2024-02-04T06:25:24;11.50;99.90
48860;DHT22;34679;51.436;-2.518;2024-02-04T06:27:50;11.50;99.90
48860;DHT22;34679;51.436;-2.518;2024-02-04T06:30:16;11.50;99.90
48860;DHT22;34679;51.436;-2.518;2024-02-04T06:32:42;11.60;99.90
48860;DHT22;34679;51.436;-2.518;2024-02-04T06:35:08;11.50;99.90
48860;DHT22;34679;51.436;-2.518;2024-02-04T06:37:33;11.50;99.90
48860;DHT22;34679;51.436;-2.518;2024-02-04T06:40:02;11.50;99.90
48860;DHT22;34679;51.436;-2.518;2024-02-04T06:42:28;11.50;99.90
48860;DHT22;34679;51.436;-2.518;2024-02-04T06:44:54;11.50;99.90
48860;DHT22;34679;51.436;-2.518;2024-02-04T06:47:20;11.50;99.90
48860;DHT22;34679;51.436;-2.518;2024-02-04T06:49:46;11.40;99.90
48860;DHT22;34679;51.436;-2.518;2024-02-04T06:52:12;11.50;99.90
48860;DHT22;34679;51.436;-2.518;2024-02-04T06:54:37;11.50;99.90
48860;DHT22;34679;51.436;-2.518;2024-02-04T06:57:03;11.40;99.90
48860;DHT22;34679;51.436;-2.518;2024-02-04T06:59:29;11.50;99.90
48860;DHT22;34679;51.436;-2.518;2024-02-04T07:01:57;11.50;99.90
48860;DHT22;34679;51.436;-2.518;2024-02-04T07:04:23;11.40;99.90
48860;DHT22;34679;51.436;-2.518;2024-02-04T07:06:50;11.40;99.90
48860;DHT22;34679;51.436;-2.518;2024-02-04T07:09:16;11.40;99.90
48860;DHT22;34679;51.436;-2.518;2024-02-04T07:11:42;11.40;99.90
48860;DHT22;34679;51.436;-2.518;2024-02-04T07:14:08;11.40;99.90
48860;DHT22;34679;51.436;-2.518;2024-02-04T07:16:34;11.40;99.90
48860;DHT22;34679;51.436;-2.518;2024-02-04T07:18:59;11.40;99.90
48860;DHT22;34679;51.436;-2.518;2024-02-04T07:21:25;11.40;99.90
48860;DHT22;34679;51.436;-2.518;2024-02-04T07:23:51;11.40;99.90
48860;DHT22;34679;51.436;-2.518;2024-02-04T07:26:17;11.40;99.90
48860;DHT22;34679;51.436;-2.518;2024-02-04T07:28:42;11.40;99.90
48860;DHT22;34679;51.436;-2.518;2024-02-04T07:31:08;11.40;99.90
48860;DHT22;34679;51.436;-2.518;2024-02-04T07:33:34;11.40;99.90
48860;DHT22;34679;51.436;-2.518;2024-02-04T07:36:00;11.40;99.90
48860;DHT22;34679;51.436;-2.518;2024-02-04T07:38:25;11.40;99.90
48860;DHT22;34679;51.436;-2.518;2024-02-04T07:40:51;11.40;99.90
48860;DHT22;34679;51.436;-2.518;2024-02-04T07:43:17;11.40;99.90
48860;DHT22;34679;51.436;-2.518;2024-02-04T07:45:42;11.40;99.90
48860;DHT22;34679;51.436;-2.518;2024-02-04T07:48:08;11.30;99.90
48860;DHT22;34679;51.436;-2.518;2024-02-04T07:50:35;11.40;99.90
48860;DHT22;34679;51.436;-2.518;2024-02-04T07:53:01;11.40;99.90
48860;DHT22;34679;51.436;-2.518;2024-02-04T07:55:26;11.40;99.90
48860;DHT22;34679;51.436;-2.518;2024-02-04T07:57:52;11.40;99.90
48860;DHT22;34679;51.436;-2.518;2024-02-04T08:00:18;11.40;99.90
48860;DHT22;34679;51.436;-2.518;2024-02-04T08:02:44;11.40;99.90
48860;DHT22;34679;51.436;-2.518;2024-02-04T08:05:10;11.10;99.90
48860;DHT22;34679;51.436;-2.518;2024-02-04T08:07:36;11.40;99.90
48860;DHT22;34679;51.436;-2.518;2024-02-04T08:10:02;11.40;99.90
48860;DHT22;34679;51.436;-2.518;2024-02-04T08:12:28;11.40;99.90
48860;DHT22;34679;51.436;-2.518;2024-02-04T08:14:54;11.50;99.90
48860;DHT22;34679;51.436;-2.518;2024-02-04T08:17:19;11.40;99.90
48860;DHT22;34679;51.436;-2.518;2024-02-04T08:19:45;11.40;99.90
48860;DHT22;34679;51.436;-2.518;2024-02-04T08:22:11;11.40;99.90
48860;DHT22;34679;51.436;-2.518;2024-02-04T08:24:36;11.40;99.90
48860;DHT22;34679;51.436;-2.518;2024-02-04T08:27:02;11.40;99.90
48860;DHT22;34679;51.436;-2.518;2024-02-04T08:29:29;11.50;99.90
48860;DHT22;34679;51.436;-2.518;2024-02-04T08:31:55;11.40;99.90
48860;DHT22;34679;51.436;-2.518;2024-02-04T08:34:20;11.40;99.90
48860;DHT22;34679;51.436;-2.518;2024-02-04T08:36:49;11.50;99.90
48860;DHT22;34679;51.436;-2.518;2024-02-04T08:39:15;11.50;99.90
48860;DHT22;34679;51.436;-2.518;2024-02-04T08:41:41;11.50;99.90
48860;DHT22;34679;51.436;-2.518;2024-02-04T08:44:07;11.50;99.90
48860;DHT22;34679;51.436;-2.518;2024-02-04T08:46:33;11.40;99.90
48860;DHT22;34679;51.436;-2.518;2024-02-04T08:48:59;11.50;99.90
48860;DHT22;34679;51.436;-2.518;2024-02-04T08:51:24;11.50;99.90
48860;DHT22;34679;51.436;-2.518;2024-02-04T08:53:50;11.50;99.90
48860;DHT22;34679;51.436;-2.518;2024-02-04T08:56:16;11.50;99.90
48860;DHT22;34679;51.436;-2.518;2024-02-04T08:58:42;11.50;99.90
48860;DHT22;34679;51.436;-2.518;2024-02-04T09:01:07;11.50;99.90
48860;DHT22;34679;51.436;-2.518;2024-02-04T09:03:33;11.50;99.90
48860;DHT22;34679;51.436;-2.518;2024-02-04T09:05:59;11.50;99.90
48860;DHT22;34679;51.436;-2.518;2024-02-04T09:08:25;11.50;99.90
48860;DHT22;34679;51.436;-2.518;2024-02-04T09:10:51;11.50;99.90
48860;DHT22;34679;51.436;-2.518;2024-02-04T09:13:16;11.50;99.90
48860;DHT22;34679;51.436;-2.518;2024-02-04T09:15:42;11.50;99.90
48860;DHT22;34679;51.436;-2.518;2024-02-04T09:18:08;11.50;99.90
48860;DHT22;34679;51.436;-2.518;2024-02-04T09:20:34;11.50;99.90
48860;DHT22;34679;51.436;-2.518;2024-02-04T09:23:00;11.50;99.90
48860;DHT22;34679;51.436;-2.518;2024-02-04T09:25:25;11.60;99.90
48860;DHT22;34679;51.436;-2.518;2024-02-04T09:27:51;11.60;99.90
48860;DHT22;34679;51.436;-2.518;2024-02-04T09:30:17;11.60;99.90
48860;DHT22;34679;51.436;-2.518;2024-02-04T09:32:42;11.50;99.90
48860;DHT22;34679;51.436;-2.518;2024-02-04T09:35:08;11.60;99.90
48860;DHT22;34679;51.436;-2.518;2024-02-04T09:37:37;11.60;99.90
48860;DHT22;34679;51.436;-2.518;2024-02-04T09:40:03;11.60;99.90
48860;DHT22;34679;51.436;-2.518;2024-02-04T09:42:29;11.60;99.90
48860;DHT22;34679;51.436;-2.518;2024-02-04T09:44:57;11.70;99.90
48860;DHT22;34679;51.436;-2.518;2024-02-04T09:47:22;11.70;99.90
48860;DHT22;34679;51.436;-2.518;2024-02-04T09:49:48;11.70;99.90
48860;DHT22;34679;51.436;-2.518;2024-02-04T09:52:18;11.70;99.90
48860;DHT22;34679;51.436;-2.518;2024-02-04T09:54:46;11.70;99.90
48860;DHT22;34679;51.436;-2.518;2024-02-04T09:57:13;11.70;99.90
48860;DHT22;34679;51.436;-2.518;2024-02-04T09:59:40;11.80;99.90
48860;DHT22;34679;51.436;-2.518;2024-02-04T10:02:06;11.80;99.90
48860;DHT22;34679;51.436;-2.518;2024-02-04T10:04:33;11.80;99.90
48860;DHT22;34679;51.436;-2.518;2024-02-04T10:06:59;11.80;99.90
48860;DHT22;34679;51.436;-2.518;2024-02-04T10:09:25;11.80;99.90
48860;DHT22;34679;51.436;-2.518;2024-02-04T10:11:51;11.80;99.90
48860;DHT22;34679;51.436;-2.518;2024-02-04T10:14:17;11.80;99.90
48860;DHT22;34679;51.436;-2.518;2024-02-04T10:16:45;11.80;99.90
48860;DHT22;34679;51.436;-2.518;2024-02-04T10:19:11;11.80;99.90
48860;DHT22;34679;51.436;-2.518;2024-02-04T10:21:37;11.80;99.90
48860;DHT22;34679;51.436;-2.518;2024-02-04T10:24:03;11.90;99.90
48860;DHT22;34679;51.436;-2.518;2024-02-04T10:26:29;11.90;99.90
48860;DHT22;34679;51.436;-2.518;2024-02-04T10:29:01;11.90;99.90
48860;DHT22;34679;51.436;-2.518;2024-02-04T10:31:26;12.00;99.90
48860;DHT22;34679;51.436;-2.518;2024-02-04T10:33:52;12.00;99.90
48860;DHT22;34679;51.436;-2.518;2024-02-04T10:36:18;12.00;99.90
48860;DHT22;34679;51.436;-2.518;2024-02-04T10:38:44;12.10;99.90
48860;DHT22;34679;51.436;-2.518;2024-02-04T10:41:15;12.00;99.90
48860;DHT22;34679;51.436;-2.518;2024-02-04T10:43:43;12.10;99.90
48860;DHT22;34679;51.436;-2.518;2024-02-04T10:46:19;12.20;99.90
48860;DHT22;34679;51.436;-2.518;2024-02-04T10:48:57;12.20;99.90
48860;DHT22;34679;51.436;-2.518;2024-02-04T10:51:26;12.20;99.90
48860;DHT22;34679;51.436;-2.518;2024-02-04T10:53:54;12.20;99.90
48860;DHT22;34679;51.436;-2.518;2024-02-04T10:58:52;12.20;99.90
48860;DHT22;34679;51.436;-2.518;2024-02-04T11:01:19;12.20;99.90
48860;DHT22;34679;51.436;-2.518;2024-02-04T11:03:46;12.40;99.90
48860;DHT22;34679;51.436;-2.518;2024-02-04T11:06:13;12.40;99.90
48860;DHT22;34679;51.436;-2.518;2024-02-04T11:08:39;12.40;99.90
48860;DHT22;34679;51.436;-2.518;2024-02-04T11:11:05;12.50;99.90
48860;DHT22;34679;51.436;-2.518;2024-02-04T11:13:31;12.60;99.90
48860;DHT22;34679;51.436;-2.518;2024-02-04T11:16:05;12.70;99.90
48860;DHT22;34679;51.436;-2.518;2024-02-04T11:22:06;12.70;99.90
48860;DHT22;34679;51.436;-2.518;2024-02-04T11:27:11;12.80;99.90
48860;DHT22;34679;51.436;-2.518;2024-02-04T11:29:38;12.80;99.90
48860;DHT22;34679;51.436;-2.518;2024-02-04T11:32:05;12.90;99.90
48860;DHT22;34679;51.436;-2.518;2024-02-04T11:34:33;12.90;99.90
48860;DHT22;34679;51.436;-2.518;2024-02-04T11:36:59;12.80;99.90
48860;DHT22;34679;51.436;-2.518;2024-02-04T11:39:25;12.80;99.90
48860;DHT22;34679;51.436;-2.518;2024-02-04T11:41:51;12.90;99.90
48860;DHT22;34679;51.436;-2.518;2024-02-04T11:44:24;12.90;99.90
48860;DHT22;34679;51.436;-2.518;2024-02-04T11:46:51;12.90;99.90
48860;DHT22;34679;51.436;-2.518;2024-02-04T11:49:18;12.80;99.90
48860;DHT22;34679;51.436;-2.518;2024-02-04T11:51:50;12.80;99.90
48860;DHT22;34679;51.436;-2.518;2024-02-04T11:54:16;12.80;99.90
48860;DHT22;34679;51.436;-2.518;2024-02-04T11:56:45;12.80;99.90
48860;DHT22;34679;51.436;-2.518;2024-02-04T11:59:12;12.70;99.90
48860;DHT22;34679;51.436;-2.518;2024-02-04T12:01:39;12.60;99.90
48860;DHT22;34679;51.436;-2.518;2024-02-04T12:04:18;12.70;99.90
48860;DHT22;34679;51.436;-2.518;2024-02-04T12:06:43;12.60;99.90
48860;DHT22;34679;51.436;-2.518;2024-02-04T12:09:09;12.70;99.90
48860;DHT22;34679;51.436;-2.518;2024-02-04T12:11:36;12.80;99.90
48860;DHT22;34679;51.436;-2.518;2024-02-04T12:14:07;12.80;99.90
48860;DHT22;34679;51.436;-2.518;2024-02-04T12:16:33;12.80;99.90
48860;DHT22;34679;51.436;-2.518;2024-02-04T12:19:01;12.70;99.90
48860;DHT22;34679;51.436;-2.518;2024-02-04T12:21:29;12.80;99.90
48860;DHT22;34679;51.436;-2.518;2024-02-04T12:23:55;12.80;99.90
48860;DHT22;34679;51.436;-2.518;2024-02-04T12:26:22;12.80;99.90
48860;DHT22;34679;51.436;-2.518;2024-02-04T12:28:49;12.90;99.90
48860;DHT22;34679;51.436;-2.518;2024-02-04T12:31:24;12.90;99.90
48860;DHT22;34679;51.436;-2.518;2024-02-04T12:33:57;12.90;99.90
48860;DHT22;34679;51.436;-2.518;2024-02-04T12:36:27;12.90;99.90
48860;DHT22;34679;51.436;-2.518;2024-02-04T12:38:54;12.90;99.90
48860;DHT22;34679;51.436;-2.518;2024-02-04T12:41:21;12.90;99.90
48860;DHT22;34679;51.436;-2.518;2024-02-04T12:43:51;12.90;99.90
48860;DHT22;34679;51.436;-2.518;2024-02-04T12:46:18;13.00;99.90
48860;DHT22;34679;51.436;-2.518;2024-02-04T12:48:44;13.00;99.90
48860;DHT22;34679;51.436;-2.518;2024-02-04T12:51:10;13.10;99.90
48860;DHT22;34679;51.436;-2.518;2024-02-04T12:53:37;13.00;99.90
48860;DHT22;34679;51.436;-2.518;2024-02-04T12:56:03;13.20;99.90
48860;DHT22;34679;51.436;-2.518;2024-02-04T12:58:29;13.10;99.90
48860;DHT22;34679;51.436;-2.518;2024-02-04T13:01:01;13.00;99.90
48860;DHT22;34679;51.436;-2.518;2024-02-04T13:03:28;13.00;99.90
48860;DHT22;34679;51.436;-2.518;2024-02-04T13:06:00;13.10;99.90
48860;DHT22;34679;51.436;-2.518;2024-02-04T13:08:26;13.10;99.90
48860;DHT22;34679;51.436;-2.518;2024-02-04T13:10:56;13.00;99.90
48860;DHT22;34679;51.436;-2.518;2024-02-04T13:13:22;13.10;99.90
48860;DHT22;34679;51.436;-2.518;2024-02-04T13:15:52;13.00;99.90
48860;DHT22;34679;51.436;-2.518;2024-02-04T13:18:18;13.00;99.90
48860;DHT22;34679;51.436;-2.518;2024-02-04T13:20:44;13.00;99.90
48860;DHT22;34679;51.436;-2.518;2024-02-04T13:23:11;13.00;99.90
48860;DHT22;34679;51.436;-2.518;2024-02-04T13:25:37;13.00;99.90
48860;DHT22;34679;51.436;-2.518;2024-02-04T13:28:03;13.00;99.90
48860;DHT22;34679;51.436;-2.518;2024-02-04T13:30:29;13.00;99.90
48860;DHT22;34679;51.436;-2.518;2024-02-04T13:32:55;13.00;99.90
48860;DHT22;34679;51.436;-2.518;2024-02-04T13:35:23;13.00;99.90
48860;DHT22;34679;51.436;-2.518;2024-02-04T13:37:49;13.00;99.90
48860;DHT22;34679;51.436;-2.518;2024-02-04T13:40:18;13.00;99.90
48860;DHT22;34679;51.436;-2.518;2024-02-04T13:42:45;12.80;99.90
48860;DHT22;34679;51.436;-2.518;2024-02-04T13:45:11;12.80;99.90
48860;DHT22;34679;51.436;-2.518;2024-02-04T13:47:40;12.70;99.90
48860;DHT22;34679;51.436;-2.518;2024-02-04T13:50:07;12.80;99.90
48860;DHT22;34679;51.436;-2.518;2024-02-04T13:52:36;12.80;99.90
48860;DHT22;34679;51.436;-2.518;2024-02-04T13:55:02;12.70;99.90
48860;DHT22;34679;51.436;-2.518;2024-02-04T13:57:30;12.70;99.90
48860;DHT22;34679;51.436;-2.518;2024-02-04T13:59:57;12.80;99.90
48860;DHT22;34679;51.436;-2.518;2024-02-04T14:02:22;12.70;99.90
48860;DHT22;34679;51.436;-2.518;2024-02-04T14:04:50;12.80;99.90
48860;DHT22;34679;51.436;-2.518;2024-02-04T14:07:16;12.90;99.90
48860;DHT22;34679;51.436;-2.518;2024-02-04T14:09:42;12.90;99.90
48860;DHT22;34679;51.436;-2.518;2024-02-04T14:12:08;12.80;99.90
48860;DHT22;34679;51.436;-2.518;2024-02-04T14:14:34;12.70;99.90
48860;DHT22;34679;51.436;-2.518;2024-02-04T14:17:00;12.70;99.90
48860;DHT22;34679;51.436;-2.518;2024-02-04T14:19:25;12.60;99.90
48860;DHT22;34679;51.436;-2.518;2024-02-04T14:21:51;12.70;99.90
48860;DHT22;34679;51.436;-2.518;2024-02-04T14:24:17;12.70;99.90
48860;DHT22;34679;51.436;-2.518;2024-02-04T14:26:43;12.60;99.90
48860;DHT22;34679;51.436;-2.518;2024-02-04T14:29:09;12.60;99.90
48860;DHT22;34679;51.436;-2.518;2024-02-04T14:31:35;12.60;99.90
48860;DHT22;34679;51.436;-2.518;2024-02-04T14:34:01;12.60;99.90
48860;DHT22;34679;51.436;-2.518;2024-02-04T14:36:27;12.70;99.90
48860;DHT22;34679;51.436;-2.518;2024-02-04T14:38:53;12.80;99.90
48860;DHT22;34679;51.436;-2.518;2024-02-04T14:41:19;12.70;99.90
48860;DHT22;34679;51.436;-2.518;2024-02-04T14:43:44;12.70;99.90
48860;DHT22;34679;51.436;-2.518;2024-02-04T14:46:10;12.70;99.90
48860;DHT22;34679;51.436;-2.518;2024-02-04T14:48:36;12.70;99.90
48860;DHT22;34679;51.436;-2.518;2024-02-04T14:51:03;12.70;99.90
48860;DHT22;34679;51.436;-2.518;2024-02-04T14:53:28;12.70;99.90
48860;DHT22;34679;51.436;-2.518;2024-02-04T14:55:54;12.60;99.90
48860;DHT22;34679;51.436;-2.518;2024-02-04T14:58:22;12.60;99.90
48860;DHT22;34679;51.436;-2.518;2024-02-04T15:00:48;12.60;99.90
48860;DHT22;34679;51.436;-2.518;2024-02-04T15:03:14;12.60;99.90
48860;DHT22;34679;51.436;-2.518;2024-02-04T15:05:43;12.60;99.90
48860;DHT22;34679;51.436;-2.518;2024-02-04T15:08:08;12.60;99.90
48860;DHT22;34679;51.436;-2.518;2024-02-04T15:10:34;12.60;99.90
48860;DHT22;34679;51.436;-2.518;2024-02-04T15:13:00;12.60;99.90
48860;DHT22;34679;51.436;-2.518;2024-02-04T15:15:27;12.60;99.90
48860;DHT22;34679;51.436;-2.518;2024-02-04T15:17:52;12.60;99.90
48860;DHT22;34679;51.436;-2.518;2024-02-04T15:20:18;12.60;99.90
48860;DHT22;34679;51.436;-2.518;2024-02-04T15:22:46;12.60;99.90
48860;DHT22;34679;51.436;-2.518;2024-02-04T15:25:13;12.50;99.90